Terminal Aerodrome Forecast
Issued by NWS

Home | Current Version | Previous Version | Graphics & Text | Print | Product List | Glossary On
Versions: 1 2 3 4 5 6 7 8 9 10 11 12 13 14 15 16 17 18
906
FTUS43 KMPX 271609 AAB
TAFAXN
TAF AMD
KAXN 271609Z 2716/2812 01006KT P6SM SCT006 BKN015
      TEMPO 2716/2718 FEW015 BKN025
     FM271800 01008KT P6SM SCT025 BKN040
     FM271900 02008KT P6SM SCT040=

USA.gov is the U.S. government's official web portal to all federal, state and local government web resources and services.